createdAt,value
2023-01-26T00:00:46.466Z,43.60
2023-01-26T00:01:33.351Z,43.80
2023-01-26T00:02:20.530Z,45.28
2023-01-26T00:03:07.482Z,46.53
2023-01-26T00:03:54.490Z,46.30
2023-01-26T00:04:41.453Z,42.72
2023-01-26T00:05:28.343Z,45.83
2023-01-26T00:06:18.202Z,42.30
2023-01-26T00:07:05.222Z,42.70
2023-01-26T00:07:52.218Z,45.30
2023-01-26T00:08:46.880Z,43.25
2023-01-26T00:09:33.781Z,42.15
2023-01-26T00:10:21.134Z,43.97
2023-01-26T00:11:10.461Z,44.28
2023-01-26T00:11:57.450Z,44.58
2023-01-26T00:12:44.411Z,43.00
2023-01-26T00:13:33.647Z,42.50
2023-01-26T00:14:20.590Z,41.97
2023-01-26T00:15:07.956Z,44.50
2023-01-26T00:15:54.953Z,44.60
2023-01-26T00:16:41.964Z,45.38
2023-01-26T00:17:29.244Z,43.22
2023-01-26T00:18:16.256Z,43.58
2023-01-26T00:19:03.511Z,43.00
2023-01-26T00:19:50.388Z,44.50
2023-01-26T00:20:37.387Z,47.47
2023-01-26T00:21:24.788Z,43.40
2023-01-26T00:22:11.890Z,43.10
2023-01-26T00:22:58.875Z,45.65
2023-01-26T00:23:46.368Z,48.40
2023-01-26T00:24:33.324Z,44.78
2023-01-26T00:25:20.321Z,45.33
2023-01-26T00:26:08.248Z,48.53
2023-01-26T00:26:55.366Z,46.55
2023-01-26T00:27:42.348Z,46.75
2023-01-26T00:28:29.727Z,47.58
2023-01-26T00:29:16.652Z,46.30
2023-01-26T00:30:04.152Z,48.22
2023-01-26T00:30:51.117Z,46.37
2023-01-26T00:31:38.003Z,48.45
2023-01-26T00:32:24.977Z,44.85
2023-01-26T00:33:12.261Z,46.97
2023-01-26T00:33:59.255Z,49.45
2023-01-26T00:34:46.262Z,46.88
2023-01-26T00:35:33.286Z,48.20
2023-01-26T00:36:20.482Z,47.45
2023-01-26T00:37:07.411Z,46.08
2023-01-26T00:37:55.805Z,50.38
2023-01-26T00:38:43.487Z,47.65
2023-01-26T00:39:30.414Z,48.20
2023-01-26T00:40:18.079Z,47.00
2023-01-26T00:41:05.468Z,49.70
2023-01-26T00:42:10.077Z,49.63
2023-01-26T00:42:57.302Z,48.10
2023-01-26T00:43:44.285Z,46.97
2023-01-26T00:44:31.224Z,45.67
2023-01-26T00:45:18.174Z,47.50
2023-01-26T00:46:05.295Z,47.75
2023-01-26T00:46:52.322Z,50.28
2023-01-26T00:47:39.476Z,50.00
2023-01-26T00:48:26.421Z,47.88
2023-01-26T00:49:13.376Z,48.22
2023-01-26T00:50:00.342Z,46.65
2023-01-26T00:50:47.306Z,48.50
2023-01-26T00:51:34.269Z,47.58
2023-01-26T00:52:21.225Z,48.85
2023-01-26T00:53:08.182Z,46.65
2023-01-26T00:53:55.262Z,47.97
2023-01-26T00:54:42.262Z,45.67
2023-01-26T00:55:32.609Z,47.97
2023-01-26T00:56:19.809Z,47.25
2023-01-26T00:57:06.785Z,45.35
2023-01-26T00:57:53.817Z,45.97
2023-01-26T00:58:40.853Z,46.37
2023-01-26T00:59:28.080Z,46.58
2023-01-26T01:00:17.058Z,47.28
2023-01-26T01:01:04.309Z,47.40
2023-01-26T01:01:51.317Z,45.85
2023-01-26T01:02:38.299Z,47.33
2023-01-26T01:03:25.407Z,45.90
2023-01-26T01:04:12.510Z,45.45
2023-01-26T01:04:59.496Z,47.13
2023-01-26T01:05:46.513Z,45.75
2023-01-26T01:06:33.449Z,45.17
2023-01-26T01:07:20.528Z,46.47
2023-01-26T01:08:07.486Z,48.03
2023-01-26T01:08:54.393Z,46.22
2023-01-26T01:09:41.461Z,47.97
2023-01-26T01:10:28.483Z,46.80
2023-01-26T01:11:15.486Z,49.33
2023-01-26T01:12:02.438Z,46.28
2023-01-26T01:12:49.418Z,44.95
2023-01-26T01:13:36.515Z,45.42
2023-01-26T01:14:23.398Z,43.72
2023-01-26T01:15:11.121Z,46.58
2023-01-26T01:15:58.186Z,45.20
2023-01-26T01:16:46.443Z,44.42
2023-01-26T01:17:34.233Z,43.90
2023-01-26T01:18:21.134Z,45.70
2023-01-26T01:19:08.489Z,47.33
2023-01-26T01:19:55.617Z,46.08
2023-01-26T01:20:42.662Z,46.03
2023-01-26T01:21:30.058Z,49.63
2023-01-26T01:22:17.064Z,49.97
2023-01-26T01:23:04.050Z,48.42
2023-01-26T01:23:51.054Z,45.90
2023-01-26T01:24:38.147Z,51.90
2023-01-26T01:25:25.075Z,51.15
2023-01-26T01:26:13.199Z,49.70
2023-01-26T01:27:00.270Z,51.85
2023-01-26T01:27:47.245Z,49.15
2023-01-26T01:28:35.155Z,49.03
2023-01-26T01:29:22.094Z,48.50
2023-01-26T01:30:10.050Z,48.33
2023-01-26T01:30:57.334Z,47.45
2023-01-26T01:31:44.595Z,51.90
2023-01-26T01:32:31.738Z,54.35
2023-01-26T01:33:19.033Z,52.10
2023-01-26T01:34:05.971Z,55.75
2023-01-26T01:34:52.870Z,54.53
2023-01-26T01:35:39.773Z,52.55
2023-01-26T01:36:26.901Z,52.40
2023-01-26T01:37:14.254Z,53.35
2023-01-26T01:38:01.238Z,54.42
2023-01-26T01:38:48.570Z,54.38
2023-01-26T01:39:35.560Z,57.22
2023-01-26T01:40:22.639Z,54.63
2023-01-26T01:41:10.588Z,55.40
2023-01-26T01:41:57.696Z,52.33
2023-01-26T01:42:48.766Z,53.22
2023-01-26T01:43:36.595Z,54.88
2023-01-26T01:44:25.464Z,49.95
2023-01-26T01:45:27.570Z,52.25
2023-01-26T01:46:33.719Z,52.47
2023-01-26T01:47:26.030Z,50.45
2023-01-26T01:48:20.104Z,50.33
2023-01-26T01:49:17.202Z,51.13
2023-01-26T01:50:04.496Z,51.08
2023-01-26T01:50:55.639Z,50.33
2023-01-26T01:51:45.524Z,52.28
2023-01-26T01:52:32.992Z,42.62
2023-01-26T01:53:27.574Z,48.47
2023-01-26T01:54:17.718Z,48.30
2023-01-26T01:55:10.185Z,47.67
2023-01-26T01:56:03.037Z,48.95
2023-01-26T01:56:53.822Z,48.67
2023-01-26T01:57:47.486Z,48.05
2023-01-26T01:58:38.065Z,47.13
2023-01-26T01:59:25.568Z,46.72
2023-01-26T02:00:16.214Z,46.67
2023-01-26T02:01:52.163Z,45.00
2023-01-26T02:02:39.405Z,45.38
2023-01-26T02:03:26.931Z,47.45
2023-01-26T02:04:14.066Z,44.88
2023-01-26T02:05:08.101Z,46.90
2023-01-26T02:06:31.706Z,44.88
2023-01-26T02:07:18.673Z,43.28
2023-01-26T02:08:06.387Z,46.10
2023-01-26T02:08:54.609Z,45.97
2023-01-26T02:10:01.156Z,46.92
2023-01-26T02:10:50.076Z,45.72
2023-01-26T02:11:41.167Z,44.60
2023-01-26T02:12:30.316Z,45.45
2023-01-26T02:13:18.728Z,46.00
2023-01-26T02:14:09.059Z,46.03
2023-01-26T02:14:57.882Z,46.15
2023-01-26T02:15:45.082Z,48.87
2023-01-26T02:16:32.130Z,45.33
2023-01-26T02:17:19.401Z,45.20
2023-01-26T02:18:06.465Z,45.92
2023-01-26T02:18:53.431Z,44.38
2023-01-26T02:19:46.298Z,45.78
2023-01-26T02:20:46.380Z,45.72
2023-01-26T02:21:33.465Z,44.17
2023-01-26T02:22:45.509Z,44.38
2023-01-26T02:23:51.332Z,45.75
2023-01-26T02:24:40.374Z,43.78
2023-01-26T02:25:53.975Z,46.70
2023-01-26T02:26:40.961Z,44.97
2023-01-26T02:27:28.761Z,45.42
2023-01-26T02:28:17.168Z,46.37
2023-01-26T02:29:08.315Z,45.88
2023-01-26T02:29:56.722Z,45.90
2023-01-26T02:30:43.877Z,47.03
2023-01-26T02:31:31.455Z,46.33
2023-01-26T02:32:18.544Z,47.85
2023-01-26T02:33:05.501Z,47.47
2023-01-26T02:33:52.623Z,49.30
2023-01-26T02:34:39.584Z,48.90
2023-01-26T02:35:26.599Z,48.80
2023-01-26T02:36:22.412Z,49.95
2023-01-26T02:37:14.871Z,47.00
2023-01-26T02:38:01.782Z,48.85
2023-01-26T02:39:30.207Z,47.78
2023-01-26T02:40:24.617Z,43.72
2023-01-26T02:41:13.640Z,43.47
2023-01-26T02:42:20.891Z,46.30
2023-01-26T02:43:08.061Z,45.85
2023-01-26T02:43:54.995Z,45.08
2023-01-26T02:44:42.940Z,44.97
2023-01-26T02:45:30.752Z,45.10
2023-01-26T02:46:17.742Z,43.75
2023-01-26T02:47:16.297Z,44.88
2023-01-26T02:48:06.620Z,45.03
2023-01-26T02:49:11.966Z,43.63
2023-01-26T02:50:00.603Z,43.05
2023-01-26T02:50:47.515Z,41.97
2023-01-26T02:51:34.430Z,44.17
2023-01-26T02:52:26.787Z,42.25
2023-01-26T02:53:13.658Z,42.00
2023-01-26T02:54:00.585Z,41.45
2023-01-26T02:55:06.022Z,43.33
2023-01-26T02:55:53.021Z,39.58
2023-01-26T02:56:40.259Z,40.88
2023-01-26T02:57:27.525Z,43.35
2023-01-26T02:58:14.457Z,41.03
2023-01-26T02:59:01.347Z,41.17
2023-01-26T02:59:48.259Z,41.63
2023-01-26T03:00:37.640Z,41.00
2023-01-26T03:01:25.128Z,41.53
2023-01-26T03:02:12.307Z,41.30
2023-01-26T03:03:01.504Z,42.38
2023-01-26T03:03:48.483Z,39.70
2023-01-26T03:04:35.607Z,41.60
2023-01-26T03:05:22.615Z,40.72
2023-01-26T03:06:10.720Z,41.97
2023-01-26T03:06:57.683Z,42.70
2023-01-26T03:07:44.983Z,41.25
2023-01-26T03:08:31.900Z,41.70
2023-01-26T03:09:18.895Z,42.03
2023-01-26T03:10:06.856Z,41.58
2023-01-26T03:10:54.009Z,39.47
2023-01-26T03:11:44.025Z,40.83
2023-01-26T03:12:30.983Z,40.78
2023-01-26T03:13:17.885Z,42.10
2023-01-26T03:14:04.850Z,40.70
2023-01-26T03:15:15.895Z,42.65
2023-01-26T03:16:55.805Z,37.15
2023-01-26T03:17:42.796Z,38.67
2023-01-26T03:18:48.437Z,39.25
2023-01-26T03:19:54.059Z,40.58
2023-01-26T03:20:59.585Z,37.88
2023-01-26T03:22:05.431Z,39.08
2023-01-26T03:23:11.065Z,38.47
2023-01-26T03:24:16.784Z,39.75
2023-01-26T03:25:22.888Z,38.15
2023-01-26T03:26:29.663Z,37.28
2023-01-26T03:27:28.940Z,38.00
2023-01-26T03:28:16.705Z,37.42
2023-01-26T03:29:03.718Z,38.83
2023-01-26T03:29:50.722Z,39.25
2023-01-26T03:30:37.773Z,39.50
2023-01-26T03:31:24.753Z,40.40
2023-01-26T03:32:12.093Z,38.08
2023-01-26T03:32:59.770Z,40.25
2023-01-26T03:33:46.724Z,38.95
2023-01-26T03:34:33.824Z,38.33
2023-01-26T03:35:23.036Z,38.15
2023-01-26T03:36:10.076Z,41.47
2023-01-26T03:36:57.025Z,38.10
2023-01-26T03:37:44.773Z,39.22
2023-01-26T03:38:31.730Z,38.35
2023-01-26T03:39:37.181Z,36.28
2023-01-26T03:40:42.894Z,36.55
2023-01-26T03:41:48.490Z,36.42
2023-01-26T03:42:54.872Z,36.15
2023-01-26T03:44:00.713Z,38.28
2023-01-26T03:45:06.333Z,36.20
2023-01-26T03:46:11.984Z,34.65
2023-01-26T03:47:17.593Z,37.17
2023-01-26T03:48:27.757Z,38.58
2023-01-26T03:49:33.383Z,38.75
2023-01-26T03:50:39.063Z,40.95
2023-01-26T03:51:44.868Z,38.67
2023-01-26T03:52:51.760Z,41.28
2023-01-26T03:53:57.457Z,37.83
2023-01-26T03:55:03.062Z,38.85
2023-01-26T03:56:08.637Z,37.45
2023-01-26T03:56:55.641Z,38.25
2023-01-26T03:57:42.637Z,39.58
2023-01-26T03:58:30.543Z,41.33
2023-01-26T03:59:17.602Z,40.55
2023-01-26T04:00:05.209Z,44.00
2023-01-26T04:00:52.221Z,42.38
2023-01-26T04:01:42.776Z,43.80
2023-01-26T04:02:48.405Z,43.05
2023-01-26T04:03:53.909Z,41.92
2023-01-26T04:04:59.423Z,39.08
2023-01-26T04:06:16.439Z,44.55
2023-01-26T04:07:22.440Z,41.37
2023-01-26T04:08:24.721Z,43.87
2023-01-26T04:09:11.660Z,44.28
2023-01-26T04:09:58.617Z,43.42
2023-01-26T04:10:45.533Z,46.28
2023-01-26T04:11:32.459Z,44.63
2023-01-26T04:12:19.657Z,45.72
2023-01-26T04:13:25.405Z,44.78
2023-01-26T04:14:50.093Z,44.92
2023-01-26T04:15:56.353Z,43.28
2023-01-26T04:17:01.962Z,45.75
2023-01-26T04:18:07.689Z,46.50
2023-01-26T04:19:13.849Z,49.67
2023-01-26T04:20:19.618Z,46.75
2023-01-26T04:21:25.841Z,47.67
2023-01-26T04:22:14.799Z,45.35
2023-01-26T04:23:01.806Z,45.75
2023-01-26T04:23:48.746Z,51.03
2023-01-26T04:24:35.669Z,50.50
2023-01-26T04:25:22.899Z,54.58
2023-01-26T04:26:09.796Z,54.42
2023-01-26T04:26:56.737Z,51.92
2023-01-26T04:27:43.882Z,50.55
2023-01-26T04:28:30.871Z,50.97
2023-01-26T04:29:18.249Z,50.22
2023-01-26T04:30:06.192Z,53.15
2023-01-26T04:30:53.163Z,58.65
2023-01-26T04:31:41.394Z,52.92
2023-01-26T04:32:28.462Z,55.35
2023-01-26T04:33:15.437Z,55.45
2023-01-26T04:34:04.015Z,56.70
2023-01-26T04:34:50.975Z,51.75
2023-01-26T04:35:37.909Z,58.97
2023-01-26T04:36:24.871Z,54.25
2023-01-26T04:37:11.855Z,53.03
2023-01-26T04:37:58.812Z,52.90
2023-01-26T04:38:45.780Z,58.97
2023-01-26T04:39:32.855Z,54.13
2023-01-26T04:40:21.064Z,52.92
2023-01-26T04:41:08.056Z,53.15
2023-01-26T04:41:54.975Z,62.42
2023-01-26T04:42:41.996Z,62.03
2023-01-26T04:43:29.129Z,53.75
2023-01-26T04:44:17.104Z,52.00
2023-01-26T04:45:04.362Z,55.33
2023-01-26T04:46:02.319Z,55.58
2023-01-26T04:46:49.288Z,52.25
2023-01-26T04:47:36.243Z,53.33
2023-01-26T04:48:23.277Z,54.03
2023-01-26T04:49:10.789Z,59.15
2023-01-26T04:49:57.767Z,54.20
2023-01-26T04:50:44.794Z,53.53
2023-01-26T04:51:31.768Z,56.37
2023-01-26T04:52:18.724Z,49.85
2023-01-26T04:53:06.233Z,50.15
2023-01-26T04:53:53.171Z,50.03
2023-01-26T04:54:40.824Z,51.60
2023-01-26T04:55:27.787Z,53.33
2023-01-26T04:56:17.624Z,49.03
2023-01-26T04:57:04.672Z,50.58
2023-01-26T04:57:51.637Z,52.45
2023-01-26T04:58:38.585Z,50.17
2023-01-26T04:59:25.578Z,55.60
2023-01-26T05:00:14.249Z,50.70
2023-01-26T05:01:01.321Z,49.85
2023-01-26T05:01:48.240Z,52.67
2023-01-26T05:02:35.340Z,52.03
2023-01-26T05:03:23.183Z,51.95
2023-01-26T05:04:11.583Z,47.80
2023-01-26T05:04:58.552Z,51.30
2023-01-26T05:05:45.919Z,55.10
2023-01-26T05:06:33.260Z,49.58
2023-01-26T05:07:20.190Z,60.92
2023-01-26T05:08:07.362Z,50.70
2023-01-26T05:08:54.323Z,52.50
2023-01-26T05:09:41.362Z,50.60
2023-01-26T05:10:28.306Z,48.80
2023-01-26T05:11:15.328Z,50.75
2023-01-26T05:12:22.386Z,50.85
2023-01-26T05:13:09.615Z,51.80
2023-01-26T05:13:56.580Z,47.53
2023-01-26T05:14:43.763Z,47.55
2023-01-26T05:15:31.022Z,49.35
2023-01-26T05:16:18.026Z,51.33
2023-01-26T05:17:05.003Z,50.70
2023-01-26T05:17:52.054Z,50.40
2023-01-26T05:18:39.155Z,53.13
2023-01-26T05:19:26.410Z,50.97
2023-01-26T05:20:14.156Z,64.05
2023-01-26T05:21:01.187Z,52.42
2023-01-26T05:21:48.293Z,49.78
2023-01-26T05:22:35.338Z,51.92
2023-01-26T05:23:22.821Z,50.25
2023-01-26T05:24:11.621Z,47.53
2023-01-26T05:24:58.701Z,53.13
2023-01-26T05:25:45.699Z,48.65
2023-01-26T05:26:32.725Z,46.85
2023-01-26T05:27:22.866Z,46.08
2023-01-26T05:28:10.033Z,50.50
2023-01-26T05:28:57.166Z,46.37
2023-01-26T05:29:44.232Z,44.45
2023-01-26T05:30:31.205Z,44.63
2023-01-26T05:31:18.300Z,45.10
2023-01-26T05:32:05.540Z,47.03
2023-01-26T05:32:52.526Z,46.45
2023-01-26T05:33:39.566Z,45.63
2023-01-26T05:34:26.527Z,45.58
2023-01-26T05:35:13.581Z,45.50
2023-01-26T05:36:05.485Z,45.42
2023-01-26T05:36:52.368Z,45.08
2023-01-26T05:37:39.567Z,44.00
2023-01-26T05:38:26.726Z,43.97
2023-01-26T05:39:13.766Z,44.90
2023-01-26T05:40:00.963Z,43.80
2023-01-26T05:40:48.033Z,46.05
2023-01-26T05:41:34.970Z,46.35
2023-01-26T05:42:23.204Z,44.00
2023-01-26T05:43:11.101Z,44.15
2023-01-26T05:43:58.042Z,44.55
2023-01-26T05:44:45.165Z,42.60
2023-01-26T05:45:32.124Z,43.45
2023-01-26T05:46:19.075Z,43.55
2023-01-26T05:47:06.083Z,42.42
2023-01-26T05:47:53.120Z,42.92
2023-01-26T05:48:40.177Z,40.47
2023-01-26T05:49:27.073Z,40.03
2023-01-26T05:50:14.501Z,44.97
2023-01-26T05:51:03.689Z,42.03
2023-01-26T05:51:50.901Z,40.15
2023-01-26T05:52:37.811Z,41.28
2023-01-26T05:53:24.851Z,40.92
2023-01-26T05:54:12.379Z,41.05
2023-01-26T05:54:59.387Z,40.20
2023-01-26T05:55:46.572Z,41.55
2023-01-26T05:56:33.475Z,41.33
2023-01-26T05:57:20.549Z,42.10
2023-01-26T05:58:08.222Z,40.85
2023-01-26T05:58:55.432Z,41.08
2023-01-26T05:59:49.798Z,42.38
2023-01-26T06:00:38.989Z,39.85
2023-01-26T06:01:28.595Z,42.53
2023-01-26T06:02:16.139Z,40.03
2023-01-26T06:03:03.215Z,40.83
2023-01-26T06:03:50.259Z,41.40
2023-01-26T06:04:37.700Z,43.75
2023-01-26T06:05:24.617Z,40.78
2023-01-26T06:06:11.524Z,41.63
2023-01-26T06:07:00.382Z,42.53
2023-01-26T06:07:47.347Z,40.65
2023-01-26T06:08:34.225Z,40.55
2023-01-26T06:09:21.681Z,39.55
2023-01-26T06:10:09.598Z,39.33
2023-01-26T06:11:01.479Z,40.80
2023-01-26T06:11:48.725Z,41.35
2023-01-26T06:12:35.778Z,39.80
2023-01-26T06:13:22.720Z,42.03
2023-01-26T06:14:09.982Z,38.08
2023-01-26T06:14:57.343Z,38.45
2023-01-26T06:15:44.513Z,38.25
2023-01-26T06:16:31.451Z,38.65
2023-01-26T06:17:19.018Z,40.58
2023-01-26T06:18:05.944Z,41.53
2023-01-26T06:18:52.866Z,40.12
2023-01-26T06:19:39.960Z,40.17
2023-01-26T06:20:26.936Z,41.92
2023-01-26T06:21:13.927Z,39.00
2023-01-26T06:22:00.828Z,39.83
2023-01-26T06:22:48.014Z,40.45
2023-01-26T06:23:35.034Z,40.78
2023-01-26T06:24:24.089Z,38.90
2023-01-26T06:25:11.108Z,37.90
2023-01-26T06:26:01.816Z,39.47
2023-01-26T06:26:49.738Z,37.45
2023-01-26T06:27:36.673Z,38.60
2023-01-26T06:28:23.966Z,36.80
2023-01-26T06:29:11.441Z,40.42
2023-01-26T06:29:58.311Z,38.33
2023-01-26T06:30:46.248Z,38.67
2023-01-26T06:31:33.342Z,39.78
2023-01-26T06:32:20.760Z,38.63
2023-01-26T06:33:07.884Z,39.13
2023-01-26T06:33:54.845Z,39.83
2023-01-26T06:34:42.273Z,39.92
2023-01-26T06:35:29.260Z,37.97
2023-01-26T06:36:16.765Z,38.20
2023-01-26T06:37:04.706Z,38.80
2023-01-26T06:37:51.770Z,38.47
2023-01-26T06:38:39.188Z,37.67
2023-01-26T06:39:26.602Z,38.10
2023-01-26T06:40:13.784Z,37.45
2023-01-26T06:41:04.986Z,38.00
2023-01-26T06:41:51.914Z,38.35
2023-01-26T06:42:38.924Z,36.95
2023-01-26T06:43:25.831Z,38.60
2023-01-26T06:44:13.035Z,36.08
2023-01-26T06:45:00.701Z,37.45
2023-01-26T06:45:47.852Z,35.88
2023-01-26T06:46:34.812Z,37.58
2023-01-26T06:47:21.881Z,38.97
2023-01-26T06:48:08.937Z,35.00
2023-01-26T06:48:56.203Z,36.58
2023-01-26T06:49:43.318Z,37.83
2023-01-26T06:50:33.885Z,35.50
2023-01-26T06:51:20.811Z,36.60
2023-01-26T06:52:23.903Z,39.78
2023-01-26T06:53:34.864Z,39.83
2023-01-26T06:54:22.231Z,40.85
2023-01-26T06:55:18.090Z,38.22
2023-01-26T06:56:06.566Z,39.75
2023-01-26T06:57:00.630Z,41.47
2023-01-26T06:57:58.575Z,44.38
2023-01-26T06:58:45.729Z,40.97
2023-01-26T06:59:37.592Z,44.03
2023-01-26T07:00:26.027Z,41.55
2023-01-26T07:01:25.637Z,42.10
2023-01-26T07:02:21.406Z,39.03
2023-01-26T07:03:10.486Z,38.42
2023-01-26T07:04:04.748Z,43.38
2023-01-26T07:04:52.212Z,41.67
2023-01-26T07:05:39.459Z,41.88
2023-01-26T07:06:26.428Z,41.95
2023-01-26T07:07:14.488Z,42.30
2023-01-26T07:08:02.760Z,38.95
2023-01-26T07:08:50.809Z,45.42
2023-01-26T07:09:37.796Z,40.35
2023-01-26T07:10:24.881Z,40.03
2023-01-26T07:11:12.751Z,37.13
2023-01-26T07:11:59.660Z,41.80
2023-01-26T07:12:46.810Z,39.53
2023-01-26T07:13:34.316Z,39.28
2023-01-26T07:14:21.239Z,37.72
2023-01-26T07:15:08.878Z,38.28
2023-01-26T07:16:03.766Z,39.25
2023-01-26T07:16:51.418Z,36.53
2023-01-26T07:17:39.642Z,40.45
2023-01-26T07:18:27.017Z,38.10
2023-01-26T07:19:14.117Z,38.72
2023-01-26T07:20:01.185Z,39.20
2023-01-26T07:20:48.159Z,39.25
2023-01-26T07:21:36.336Z,39.55
2023-01-26T07:22:23.394Z,39.08
2023-01-26T07:23:11.493Z,38.88
2023-01-26T07:24:00.758Z,39.92
2023-01-26T07:24:49.792Z,40.10
2023-01-26T07:25:43.668Z,39.25
2023-01-26T07:26:33.266Z,39.10
2023-01-26T07:27:20.361Z,40.75
2023-01-26T07:28:10.370Z,37.60
2023-01-26T07:28:57.972Z,37.88
2023-01-26T07:29:46.789Z,39.30
2023-01-26T07:30:34.005Z,41.65
2023-01-26T07:31:21.062Z,36.55
2023-01-26T07:32:08.144Z,36.40
2023-01-26T07:32:55.282Z,36.17
2023-01-26T07:33:42.396Z,37.65
2023-01-26T07:34:29.621Z,38.15
2023-01-26T07:35:16.775Z,38.63
2023-01-26T07:36:04.352Z,38.30
2023-01-26T07:37:06.917Z,40.05
2023-01-26T07:37:54.064Z,37.72
2023-01-26T07:38:41.229Z,37.90
2023-01-26T07:39:33.759Z,38.55
2023-01-26T07:40:20.919Z,37.95
2023-01-26T07:41:10.223Z,39.75
2023-01-26T07:41:57.366Z,37.83
2023-01-26T07:42:44.616Z,38.08
2023-01-26T07:43:47.443Z,38.75
2023-01-26T07:44:34.501Z,36.70
2023-01-26T07:45:21.623Z,34.90
2023-01-26T07:46:10.700Z,37.38
2023-01-26T07:46:58.237Z,35.38
2023-01-26T07:47:45.319Z,35.95
2023-01-26T07:48:33.362Z,39.45
2023-01-26T07:49:20.457Z,36.92
2023-01-26T07:50:09.545Z,36.58
2023-01-26T07:51:00.245Z,37.42
2023-01-26T07:51:47.356Z,39.15
2023-01-26T07:52:34.520Z,38.67
2023-01-26T07:53:23.195Z,36.65
2023-01-26T07:54:11.127Z,36.92
2023-01-26T07:54:58.045Z,38.40
2023-01-26T07:55:45.854Z,36.47
2023-01-26T07:56:32.813Z,37.65
2023-01-26T07:57:19.843Z,40.92
2023-01-26T07:58:06.746Z,38.60
2023-01-26T07:58:55.255Z,41.50
2023-01-26T07:59:42.267Z,41.88
2023-01-26T08:00:29.685Z,43.10
2023-01-26T08:01:16.801Z,42.28
2023-01-26T08:02:04.002Z,44.60
2023-01-26T08:02:51.593Z,46.28
2023-01-26T08:03:38.672Z,47.15
2023-01-26T08:04:27.687Z,44.85
2023-01-26T08:05:14.891Z,44.97
2023-01-26T08:06:02.553Z,46.67
2023-01-26T08:06:52.011Z,47.55
2023-01-26T08:07:39.320Z,45.95
2023-01-26T08:08:26.820Z,48.55
2023-01-26T08:09:13.873Z,49.47
2023-01-26T08:10:01.034Z,50.25
2023-01-26T08:10:48.191Z,50.38
2023-01-26T08:11:35.422Z,48.87
2023-01-26T08:12:22.845Z,48.10
2023-01-26T08:13:10.161Z,48.17
2023-01-26T08:13:57.122Z,49.88
2023-01-26T08:14:46.979Z,49.17
2023-01-26T08:15:34.302Z,51.45
2023-01-26T08:16:21.395Z,50.50
2023-01-26T08:17:08.575Z,47.92
2023-01-26T08:17:56.991Z,49.63
2023-01-26T08:18:47.333Z,47.10
2023-01-26T08:19:34.439Z,49.10
2023-01-26T08:20:21.660Z,47.75
2023-01-26T08:21:09.355Z,47.35
2023-01-26T08:21:58.013Z,47.47
2023-01-26T08:22:44.924Z,46.92
2023-01-26T08:23:31.952Z,48.08
2023-01-26T08:24:19.083Z,44.03
2023-01-26T08:25:06.628Z,49.03
2023-01-26T08:25:53.685Z,43.83
2023-01-26T08:26:40.631Z,45.28
2023-01-26T08:27:27.984Z,45.42
2023-01-26T08:28:15.107Z,45.35
2023-01-26T08:29:02.048Z,47.60
2023-01-26T08:29:49.029Z,45.28
2023-01-26T08:30:37.176Z,45.75
2023-01-26T08:31:25.632Z,47.25
2023-01-26T08:32:13.092Z,48.00
2023-01-26T08:33:00.332Z,46.30
2023-01-26T08:33:51.717Z,49.42
2023-01-26T08:34:38.803Z,46.03
2023-01-26T08:35:25.722Z,45.78
2023-01-26T08:36:14.310Z,46.45
2023-01-26T08:37:02.282Z,46.95
2023-01-26T08:37:49.285Z,45.85
2023-01-26T08:38:36.465Z,46.37
2023-01-26T08:39:23.367Z,46.08
2023-01-26T08:40:11.280Z,45.30
2023-01-26T08:40:59.840Z,46.58
2023-01-26T08:41:47.468Z,45.33
2023-01-26T08:42:35.821Z,46.80
2023-01-26T08:43:22.786Z,44.35
2023-01-26T08:44:10.951Z,45.65
2023-01-26T08:44:57.862Z,45.75
2023-01-26T08:45:47.686Z,46.37
2023-01-26T08:46:35.180Z,32.60
2023-01-26T08:47:22.156Z,44.55
2023-01-26T08:48:09.213Z,42.60
2023-01-26T08:48:56.768Z,43.17
2023-01-26T08:49:45.001Z,44.45
2023-01-26T08:50:31.919Z,43.33
2023-01-26T08:51:18.853Z,45.08
2023-01-26T08:52:07.850Z,44.25
2023-01-26T08:52:57.197Z,44.85
2023-01-26T08:53:44.285Z,43.38
2023-01-26T08:54:31.177Z,41.67
2023-01-26T08:55:18.121Z,42.38
2023-01-26T08:56:07.329Z,40.47
2023-01-26T08:56:55.555Z,42.65
2023-01-26T08:57:42.709Z,42.47
2023-01-26T08:58:30.014Z,44.13
2023-01-26T08:59:17.227Z,43.75
2023-01-26T09:00:05.366Z,42.95
2023-01-26T09:00:52.366Z,44.58
2023-01-26T09:01:39.984Z,41.60
2023-01-26T09:02:27.388Z,40.75
2023-01-26T09:03:14.927Z,40.42
2023-01-26T09:04:03.307Z,41.25
2023-01-26T09:04:50.596Z,42.35
2023-01-26T09:05:40.027Z,42.17
2023-01-26T09:06:28.642Z,41.85
2023-01-26T09:07:15.775Z,42.42
2023-01-26T09:08:04.342Z,42.17
2023-01-26T09:08:51.290Z,39.47
2023-01-26T09:09:38.286Z,41.67
2023-01-26T09:10:25.240Z,42.30
2023-01-26T09:11:12.594Z,40.05
2023-01-26T09:11:59.768Z,40.30
2023-01-26T09:12:46.690Z,40.40
2023-01-26T09:13:33.917Z,39.47
2023-01-26T09:14:21.044Z,40.22
2023-01-26T09:15:09.483Z,39.25
2023-01-26T09:15:56.495Z,39.13
2023-01-26T09:16:43.488Z,41.08
2023-01-26T09:17:30.760Z,40.05
2023-01-26T09:18:18.858Z,40.70
2023-01-26T09:19:05.890Z,39.10
2023-01-26T09:19:52.934Z,40.47
2023-01-26T09:20:40.240Z,41.10
2023-01-26T09:21:27.191Z,38.53
2023-01-26T09:22:14.717Z,41.28
2023-01-26T09:23:01.889Z,38.33
2023-01-26T09:23:48.973Z,37.42
2023-01-26T09:24:36.013Z,39.92
2023-01-26T09:25:22.995Z,38.78
2023-01-26T09:26:10.525Z,39.45
2023-01-26T09:26:57.847Z,39.38
2023-01-26T09:27:44.904Z,39.30
2023-01-26T09:28:31.936Z,39.72
2023-01-26T09:29:19.253Z,41.05
2023-01-26T09:30:07.399Z,38.33
2023-01-26T09:30:54.449Z,38.83
2023-01-26T09:31:41.662Z,38.88
2023-01-26T09:32:29.015Z,41.15
2023-01-26T09:33:16.456Z,41.58
2023-01-26T09:34:03.372Z,41.35
2023-01-26T09:34:50.415Z,37.38
2023-01-26T09:35:37.460Z,38.88
2023-01-26T09:36:24.747Z,40.95
2023-01-26T09:37:12.025Z,39.67
2023-01-26T09:37:58.965Z,39.35
2023-01-26T09:38:46.125Z,40.47
2023-01-26T09:39:33.095Z,40.72
2023-01-26T09:40:26.654Z,40.33
2023-01-26T09:41:22.931Z,38.70
2023-01-26T09:42:42.989Z,37.08
2023-01-26T09:43:46.464Z,36.40
2023-01-26T09:44:42.465Z,37.03
2023-01-26T09:45:46.966Z,39.78
2023-01-26T09:46:58.379Z,36.40
2023-01-26T09:48:17.521Z,38.00
2023-01-26T09:49:11.899Z,38.88
2023-01-26T09:50:06.187Z,40.30
2023-01-26T09:51:43.312Z,39.88
2023-01-26T09:52:34.153Z,39.00
2023-01-26T09:53:27.364Z,39.17
2023-01-26T09:54:27.816Z,39.85
2023-01-26T09:55:18.112Z,39.10
2023-01-26T09:56:05.608Z,42.03
2023-01-26T09:56:53.653Z,42.03
2023-01-26T09:57:51.016Z,37.90
2023-01-26T09:58:43.794Z,38.38
2023-01-26T09:59:42.028Z,39.72
2023-01-26T10:00:39.786Z,37.10
2023-01-26T10:01:54.469Z,35.35
2023-01-26T10:02:45.222Z,35.40
2023-01-26T10:03:51.788Z,35.50
2023-01-26T10:04:41.335Z,34.53
2023-01-26T10:05:59.306Z,33.78
2023-01-26T10:06:46.779Z,35.35
2023-01-26T10:07:33.963Z,34.72
2023-01-26T10:08:23.563Z,35.33
2023-01-26T10:09:23.437Z,35.20
2023-01-26T10:10:16.440Z,33.17
2023-01-26T10:11:08.165Z,33.15
2023-01-26T10:12:00.452Z,33.53
2023-01-26T10:12:49.013Z,34.03
2023-01-26T10:13:36.133Z,36.35
2023-01-26T10:14:42.751Z,36.05
2023-01-26T10:15:39.602Z,34.00
2023-01-26T10:16:26.628Z,33.30
2023-01-26T10:17:18.095Z,36.05
2023-01-26T10:18:19.302Z,34.85
2023-01-26T10:19:12.980Z,33.38
2023-01-26T10:20:17.576Z,32.97
2023-01-26T10:21:06.048Z,32.60
2023-01-26T10:21:53.679Z,30.83
2023-01-26T10:22:46.903Z,30.88
2023-01-26T10:23:35.701Z,30.92
2023-01-26T10:24:24.399Z,32.95
2023-01-26T10:25:38.787Z,33.30
2023-01-26T10:26:31.732Z,29.77
2023-01-26T10:27:19.261Z,31.73
2023-01-26T10:28:18.314Z,31.12
2023-01-26T10:29:05.422Z,31.87
2023-01-26T10:29:52.315Z,31.77
2023-01-26T10:30:41.705Z,31.25
2023-01-26T10:31:32.770Z,29.30
2023-01-26T10:32:20.049Z,30.35
2023-01-26T10:33:16.447Z,31.08
2023-01-26T10:34:24.444Z,30.25
2023-01-26T10:35:18.208Z,28.75
2023-01-26T10:36:07.564Z,30.05
2023-01-26T10:37:06.330Z,28.98
2023-01-26T10:37:53.789Z,29.80
2023-01-26T10:38:42.920Z,30.50
2023-01-26T10:39:30.455Z,30.08
2023-01-26T10:40:17.699Z,30.00
2023-01-26T10:41:15.161Z,28.60
2023-01-26T10:42:03.763Z,30.15
2023-01-26T10:42:57.506Z,30.83
2023-01-26T10:44:29.044Z,30.42
2023-01-26T10:45:34.291Z,29.83
2023-01-26T10:46:26.847Z,29.40